Time;durP1;ratioP1;P1;durP2;ratioP2;P2;SDS_P1;SDS_P2;PMS_P1;PMS_P2;Temp;Humidity;BMP_temperature;BMP_pressure;BME280_temperature;BME280_humidity;BME280_pressure;Samples;Min_cycle;Max_cycle;Signal;HPM_P1;HPM_P2
2023/10/09 00:01:17;;;;;;;9.20;1.40;;;12.10;99.90;;;11.98;100.00;101191.94;4938758;29;20052;-86
2023/10/09 00:03:44;;;;;;;;;;;12.10;99.90;;;11.99;100.00;101183.50;4925206;29;20050;-85
2023/10/09 00:06:13;;;;;;;3.33;1.10;;;12.10;99.90;;;11.94;100.00;101178.69;4928862;29;20283;-86
2023/10/09 00:08:44;;;;;;;2.95;1.10;;;12.10;99.90;;;11.92;100.00;101164.38;4926377;29;20059;-86
2023/10/09 00:11:17;;;;;;;3.30;1.20;;;12.10;99.90;;;11.94;100.00;101165.00;4925188;29;20039;-87
2023/10/09 00:13:51;;;;;;;5.63;1.30;;;12.10;99.90;;;11.94;100.00;101167.75;4935576;29;20040;-86
2023/10/09 00:16:34;;;;;;;4.10;1.30;;;12.10;99.90;;;11.97;100.00;101151.97;4920533;29;20063;-85
2023/10/09 00:21:42;;;;;;;4.22;1.20;;;12.10;99.90;;;11.90;100.00;101130.94;4932776;29;20133;-87
2023/10/09 00:24:13;;;;;;;2.38;1.00;;;12.20;99.90;;;11.99;100.00;101114.31;4927732;29;20036;-85
2023/10/09 00:26:48;;;;;;;5.30;1.40;;;12.10;99.90;;;11.96;100.00;101125.69;4925072;29;20047;-86
2023/10/09 00:29:21;;;;;;;4.07;1.13;;;12.20;99.90;;;12.03;100.00;101137.47;4925959;29;20033;-85
2023/10/09 00:32:13;;;;;;;4.43;1.20;;;12.10;99.90;;;12.05;100.00;101116.22;4942515;29;20032;-85
2023/10/09 00:34:42;;;;;;;1.88;1.00;;;12.20;99.90;;;12.00;100.00;101097.66;4943002;29;20048;-85
2023/10/09 00:37:16;;;;;;;4.43;1.30;;;12.20;99.90;;;12.05;100.00;101086.13;4929830;29;20035;-85
2023/10/09 00:39:48;;;;;;;2.17;1.13;;;12.20;99.90;;;12.11;100.00;101089.91;4953265;29;20099;-85
2023/10/09 00:42:25;;;;;;;4.40;1.30;;;12.30;99.90;;;12.13;100.00;101094.09;4923417;29;20044;-86
2023/10/09 00:44:51;;;;;;;2.85;1.08;;;12.30;99.90;;;12.19;100.00;101084.19;4915149;29;20040;-86
2023/10/09 00:47:21;;;;;;;4.38;1.20;;;12.30;99.90;;;12.15;100.00;101081.03;4930219;29;20396;-87
2023/10/09 00:50:06;;;;;;;3.28;1.13;;;12.30;99.90;;;12.15;100.00;101081.03;4916863;29;20043;-85
2023/10/09 00:52:39;;;;;;;3.63;1.40;;;12.30;99.90;;;12.20;100.00;101070.31;4905872;29;20048;-85
2023/10/09 00:55:20;;;;;;;4.22;1.50;;;12.40;99.90;;;12.11;100.00;101055.19;4931218;29;20035;-86
2023/10/09 00:57:50;;;;;;;3.03;1.10;;;12.40;99.90;;;12.18;100.00;101060.63;4931468;29;20036;-85
2023/10/09 01:00:32;;;;;;;3.50;1.40;;;12.40;99.90;;;12.14;100.00;101046.53;4922136;29;20040;-86
2023/10/09 01:06:16;;;;;;;3.45;1.58;;;12.40;99.90;;;12.20;100.00;101050.31;4923168;29;20052;-87
2023/10/09 01:11:19;;;;;;;5.07;1.30;;;12.40;99.90;;;12.30;100.00;101068.97;4939183;29;20135;-85
2023/10/09 01:16:16;;;;;;;2.75;1.13;;;12.40;99.90;;;12.31;100.00;101081.59;4924571;29;20055;-86
2023/10/09 01:18:56;;;;;;;3.13;1.33;;;12.40;99.90;;;12.34;100.00;101075.69;4931122;29;20039;-86
2023/10/09 01:21:25;;;;;;;2.97;1.50;;;12.40;99.90;;;12.33;100.00;101069.41;4926651;29;20036;-85
2023/10/09 01:24:06;;;;;;;4.32;1.33;;;12.40;99.90;;;12.35;100.00;101052.75;4931004;29;20032;-85
2023/10/09 01:26:39;;;;;;;2.63;1.30;;;12.40;99.90;;;12.37;100.00;101059.69;4926204;29;20036;-85
2023/10/09 01:29:10;;;;;;;4.05;1.30;;;12.40;99.90;;;12.36;100.00;101055.28;4920074;29;20416;-86
2023/10/09 01:31:43;;;;;;;3.00;1.05;;;12.50;99.90;;;12.37;100.00;101056.09;4921605;29;20498;-86
2023/10/09 01:34:15;;;;;;;3.00;1.30;;;12.50;99.90;;;12.38;100.00;101046.84;4921600;29;20384;-84
2023/10/09 01:36:41;;;;;;;2.75;1.20;;;12.50;99.90;;;12.37;100.00;101046.00;4932932;29;20048;-85
2023/10/09 01:39:23;;;;;;;4.57;1.60;;;12.40;99.90;;;12.30;100.00;101042.44;4920460;29;20201;-85
2023/10/09 01:42:05;;;;;;;5.40;1.50;;;12.50;99.90;;;12.34;100.00;101048.34;4926591;29;20032;-86
2023/10/09 01:44:38;;;;;;;4.30;1.40;;;12.50;99.90;;;12.34;100.00;101038.25;4935706;29;20811;-85
2023/10/09 01:47:13;;;;;;;3.65;1.52;;;12.50;99.90;;;12.34;100.00;101026.44;4928291;29;20497;-87
2023/10/09 01:49:43;;;;;;;4.28;1.50;;;12.50;99.90;;;12.26;100.00;101011.13;4935902;29;20044;-88
2023/10/09 01:52:15;;;;;;;3.45;1.48;;;12.50;99.90;;;12.18;100.00;100995.81;4926147;29;20064;-87
2023/10/09 01:54:47;;;;;;;3.78;1.55;;;12.40;99.90;;;12.15;100.00;100995.41;4928853;29;20083;-86
2023/10/09 01:57:13;;;;;;;4.78;1.60;;;12.40;99.90;;;12.11;100.00;100978.59;4927963;29;20040;-88
2023/10/09 01:59:47;;;;;;;3.42;1.40;;;12.30;99.90;;;12.10;100.00;100976.09;4931171;29;20544;-89
2023/10/09 02:02:35;;;;;;;5.00;1.60;;;12.30;99.90;;;12.08;100.00;100979.03;4929446;29;20036;-89
2023/10/09 02:05:25;;;;;;;5.03;1.70;;;12.30;99.90;;;12.14;100.00;100978.16;4928116;29;20127;-89
2023/10/09 02:07:52;;;;;;;;;;;12.30;99.90;;;12.14;100.00;100974.59;4927463;29;20107;-89
2023/10/09 02:10:31;;;;;;;5.10;2.03;;;12.30;99.90;;;12.19;100.00;100970.13;4924758;29;20375;-88
2023/10/09 02:13:11;;;;;;;6.25;1.90;;;12.30;99.90;;;12.11;100.00;100945.78;4923021;29;20036;-88
2023/10/09 02:26:39;;;;;;;5.50;2.50;;;12.20;99.90;;;11.84;100.00;100880.28;4917365;29;20047;-87
2023/10/09 02:29:20;;;;;;;6.97;2.28;;;12.10;99.90;;;11.76;100.00;100847.75;4932865;29;20035;-87
2023/10/09 02:31:52;;;;;;;6.57;2.50;;;12.00;99.90;;;11.80;100.00;100840.78;4923957;29;20270;-88
2023/10/09 02:34:21;;;;;;;6.03;2.50;;;12.00;99.90;;;11.84;100.00;100838.47;4941912;29;20032;-87
2023/10/09 02:36:57;;;;;;;7.32;2.63;;;12.00;99.90;;;11.85;100.00;100840.16;4952513;29;20121;-86
2023/10/09 02:39:26;;;;;;;6.95;2.80;;;11.90;99.90;;;11.88;100.00;100834.22;4943485;29;20024;-86
2023/10/09 02:41:58;;;;;;;6.85;2.78;;;12.00;99.90;;;11.87;100.00;100824.34;4944417;29;20388;-86
2023/10/09 02:44:27;;;;;;;8.10;3.10;;;11.90;99.90;;;11.85;100.00;100819.09;4922317;29;20508;-87
2023/10/09 02:46:57;;;;;;;10.38;3.22;;;11.90;99.90;;;11.84;100.00;100822.88;4926961;29;20044;-87
2023/10/09 02:49:27;;;;;;;7.30;3.22;;;12.00;99.90;;;11.89;100.00;100812.13;4937702;29;20042;-87
2023/10/09 02:51:53;;;;;;;7.50;2.88;;;12.00;99.90;;;11.89;100.00;100798.44;4929920;29;20487;-86
2023/10/09 02:54:27;;;;;;;6.93;2.53;;;12.10;99.90;;;11.92;100.00;100800.75;4916887;29;20075;-87
2023/10/09 02:57:05;;;;;;;7.45;3.20;;;12.10;99.90;;;11.98;100.00;100787.25;4923546;29;20044;-86
2023/10/09 02:59:31;;;;;;;8.75;2.80;;;12.10;99.90;;;11.95;100.00;100769.41;4917005;29;20035;-86
2023/10/09 03:01:59;;;;;;;7.95;3.30;;;12.00;99.90;;;11.98;100.00;100755.28;4917069;29;20040;-86
2023/10/09 03:04:29;;;;;;;;;;;12.00;99.90;;;11.93;100.00;100736.84;4920265;29;20047;-86
2023/10/09 03:06:57;;;;;;;12.00;4.18;;;12.00;99.90;;;11.93;100.00;100730.50;4911441;29;20463;-86
2023/10/09 03:09:27;;;;;;;12.25;4.38;;;12.00;99.90;;;11.88;100.00;100708.47;4921471;29;20043;-86
2023/10/09 03:12:02;;;;;;;8.65;3.30;;;11.90;99.90;;;11.90;100.00;100700.88;4918174;29;20039;-86
2023/10/09 03:14:38;;;;;;;8.25;3.58;;;11.90;99.90;;;11.89;100.00;100691.84;4934529;29;20515;-86
2023/10/09 03:17:07;;;;;;;6.93;3.67;;;11.90;99.90;;;11.91;100.00;100673.31;4924683;29;20122;-85
2023/10/09 03:19:37;;;;;;;;;;;11.90;99.90;;;11.92;100.00;100647.66;4925471;29;20374;-85
2023/10/09 03:22:04;;;;;;;9.35;3.75;;;12.00;99.90;;;11.90;100.00;100629.81;4929169;29;20005;-86
2023/10/09 03:24:33;;;;;;;8.63;4.00;;;11.90;99.90;;;11.92;100.00;100611.28;4930762;29;20496;-86
2023/10/09 03:26:59;;;;;;;9.82;3.78;;;12.00;99.90;;;11.90;100.00;100592.38;4921449;29;20119;-86
2023/10/09 03:29:27;;;;;;;8.95;3.88;;;12.00;99.90;;;11.89;100.00;100579.75;4928693;29;20126;-86
2023/10/09 03:31:54;;;;;;;9.07;3.97;;;12.00;99.90;;;11.92;100.00;100570.28;4915050;29;20130;-87
2023/10/09 03:34:19;;;;;;;9.85;4.05;;;12.00;99.90;;;11.89;100.00;100552.44;4920033;29;20032;-86
2023/10/09 03:36:50;;;;;;;10.63;4.05;;;12.00;99.90;;;12.02;100.00;100567.06;4916023;29;20100;-86
2023/10/09 03:39:38;;;;;;;11.50;4.15;;;12.00;99.90;;;12.03;100.00;100571.44;4915709;29;20516;-86
2023/10/09 03:42:05;;;;;;;14.07;4.75;;;12.10;99.90;;;11.96;100.00;100548.81;4920200;29;20048;-86
2023/10/09 03:44:34;;;;;;;9.60;4.53;;;12.10;99.90;;;12.10;100.00;100572.19;4921162;29;20123;-86
2023/10/09 03:47:00;;;;;;;11.90;4.60;;;12.10;99.90;;;12.12;100.00;100580.19;4932193;29;20767;-86
2023/10/09 03:49:26;;;;;;;15.98;4.63;;;12.10;99.90;;;12.14;100.00;100573.41;4923936;29;20044;-86
2023/10/09 03:51:52;;;;;;;11.13;4.57;;;12.20;99.90;;;12.17;100.00;100569.41;4918502;29;20058;-86
2023/10/09 03:54:22;;;;;;;10.65;4.63;;;12.20;99.90;;;12.10;100.00;100564.00;4935805;29;20040;-86
2023/10/09 03:56:49;;;;;;;9.73;4.63;;;12.20;99.90;;;12.21;100.00;100573.34;4938042;29;20068;-87
2023/10/09 03:59:20;;;;;;;11.27;4.60;;;12.30;99.90;;;12.22;100.00;100581.31;4938144;29;20092;-86
2023/10/09 04:01:50;;;;;;;10.90;5.20;;;12.30;99.90;;;12.22;100.00;100578.59;4946169;29;20048;-85
2023/10/09 04:04:16;;;;;;;15.35;5.35;;;12.30;99.90;;;12.25;100.00;100582.75;4941924;29;20399;-85
2023/10/09 04:06:41;;;;;;;13.20;5.35;;;12.30;99.90;;;12.24;100.00;100570.13;4921314;29;20104;-85
2023/10/09 04:11:46;;;;;;;15.00;6.32;;;12.40;99.90;;;12.34;100.00;100550.44;4922190;29;20031;-85
2023/10/09 04:14:32;;;;;;;16.30;6.50;;;12.40;99.90;;;12.38;100.00;100537.97;4939926;29;20036;-86
2023/10/09 04:17:32;;;;;;;16.55;6.53;;;12.40;99.90;;;12.39;100.00;100536.91;4916780;29;20302;-84
2023/10/09 04:23:34;;;;;;;17.80;8.15;;;12.50;99.90;;;12.38;100.00;100496.94;4925735;29;20048;-86
2023/10/09 04:25:28;;;;;;;20.33;8.98;;;12.50;99.90;;;12.36;100.00;100471.72;4916791;29;20087;-86
2023/10/09 04:28:09;;;;;;;23.20;9.35;;;12.50;99.90;;;12.38;100.00;100442.22;4934116;29;20122;-87
2023/10/09 04:30:55;;;;;;;23.52;9.80;;;12.50;99.90;;;12.32;100.00;100413.06;4930897;29;20043;-84
2023/10/09 04:41:35;;;;;;;34.42;13.18;;;12.50;99.90;;;12.43;100.00;100330.19;4934720;29;20036;-84
2023/10/09 04:44:18;;;;;;;35.95;13.75;;;12.60;99.90;;;12.44;100.00;100309.16;4932152;29;20031;-86
2023/10/09 04:57:45;;;;;;;47.65;17.80;;;12.80;99.90;;;12.62;100.00;100179.56;4923674;29;20036;-81
2023/10/09 05:03:12;;;;;;;62.53;20.65;;;12.80;99.90;;;12.72;100.00;100135.16;4919683;29;20473;-82
2023/10/09 05:08:28;;;;;;;63.35;24.42;;;12.90;99.90;;;12.88;100.00;100117.97;4925373;29;20052;-80
2023/10/09 05:16:18;;;;;;;83.13;29.23;;;13.10;99.90;;;13.04;100.00;100105.38;4922342;29;20048;-81
2023/10/09 05:18:55;;;;;;;107.05;34.20;;;13.10;99.90;;;13.11;100.00;100082.47;4923159;29;20488;-81
2023/10/09 05:34:34;;;;;;;140.82;44.15;;;13.50;99.90;;;13.49;100.00;100050.78;4923269;29;20116;-78
2023/10/09 05:37:24;;;;;;;121.88;41.42;;;13.50;99.90;;;13.51;100.00;100054.09;4924565;29;20047;-79
2023/10/09 05:42:42;;;;;;;135.55;43.80;;;13.60;99.90;;;13.56;100.00;100023.22;4917276;29;20127;-80
2023/10/09 05:47:54;;;;;;;134.25;43.83;;;13.70;99.90;;;13.62;100.00;100011.25;4919574;29;20388;-80
2023/10/09 06:06:01;;;;;;;132.55;42.72;;;13.70;99.90;;;13.69;100.00;100098.78;4926377;29;20055;-80
2023/10/09 06:14:04;;;;;;;127.70;42.78;;;13.70;99.90;;;13.74;100.00;100110.66;4917665;29;20123;-80
2023/10/09 06:16:43;;;;;;;108.95;38.40;;;13.70;99.90;;;13.72;100.00;100103.75;4922377;29;20490;-79
2023/10/09 06:24:23;;;;;;;106.50;36.20;;;13.70;99.90;;;13.67;100.00;100107.25;4920200;29;20054;-79
2023/10/09 06:30:34;;;;;;;97.28;34.75;;;13.70;99.90;;;13.72;100.00;100110.06;4917138;29;20047;-78
2023/10/09 06:43:15;;;;;;;105.13;37.65;;;13.70;99.90;;;13.72;100.00;100137.50;4922377;29;20036;-79
2023/10/09 06:45:54;;;;;;;112.85;37.63;;;13.70;99.90;;;13.78;100.00;100141.13;4924429;29;20055;-78
2023/10/09 06:59:14;;;;;;;112.28;37.38;;;13.80;99.90;;;13.83;100.00;100154.94;4934551;29;20095;-80
2023/10/09 07:01:42;;;;;;;113.22;37.83;;;13.80;99.90;;;13.82;100.00;100142.31;4921899;29;20040;-79
2023/10/09 07:06:59;;;;;;;117.22;38.83;;;13.80;99.90;;;13.90;100.00;100155.56;4921705;29;20052;-78
2023/10/09 07:09:41;;;;;;;119.90;38.38;;;13.80;99.90;;;13.94;100.00;100167.69;4930298;29;20099;-79
2023/10/09 07:12:26;;;;;;;117.35;37.78;;;13.80;99.90;;;13.95;100.00;100163.88;4938735;29;20066;-79
2023/10/09 07:15:01;;;;;;;111.47;38.67;;;13.80;99.90;;;13.94;100.00;100164.97;4916178;29;20083;-78
2023/10/09 07:17:45;;;;;;;117.00;38.50;;;13.80;99.90;;;13.94;100.00;100145.75;4911634;29;20040;-78
2023/10/09 07:23:13;;;;;;;117.10;37.97;;;13.90;99.90;;;14.03;100.00;100148.06;4915633;29;20032;-79
2023/10/09 07:25:40;;;;;;;110.93;37.97;;;13.90;99.90;;;14.08;100.00;100145.41;4915275;29;20044;-78
2023/10/09 07:28:18;;;;;;;100.75;36.70;;;13.90;99.90;;;14.07;100.00;100141.84;4918099;29;20078;-79
2023/10/09 07:30:47;;;;;;;97.80;35.85;;;13.90;99.90;;;14.03;100.00;100142.56;4917024;29;20048;-78
2023/10/09 07:38:19;;;;;;;92.55;35.17;;;13.90;99.90;;;13.98;100.00;100146.09;4924927;29;20043;-80
2023/10/09 07:40:59;;;;;;;94.53;33.55;;;13.90;99.90;;;14.06;100.00;100158.56;4921067;29;20396;-79
2023/10/09 07:43:35;;;;;;;98.03;34.55;;;13.90;99.90;;;14.00;100.00;100143.09;4920447;29;20044;-79
2023/10/09 07:48:40;;;;;;;92.07;33.85;;;13.90;99.90;;;14.08;100.00;100154.47;4920324;29;20072;-79
2023/10/09 07:51:12;;;;;;;98.45;34.63;;;13.90;99.90;;;14.09;100.00;100152.56;4923632;29;20046;-78
2023/10/09 07:53:44;;;;;;;100.47;34.97;;;13.90;99.90;;;14.00;100.00;100157.66;4921604;29;20481;-78
2023/10/09 07:56:13;;;;;;;91.00;35.25;;;14.00;99.90;;;14.11;100.00;100128.47;4921568;29;20119;-79
2023/10/09 07:58:46;;;;;;;94.47;35.40;;;13.90;99.90;;;14.05;100.00;100127.53;4914900;29;20052;-78
2023/10/09 08:01:16;;;;;;;92.60;35.17;;;14.00;99.90;;;14.08;100.00;100112.50;4922931;29;20506;-78
2023/10/09 08:03:45;;;;;;;92.32;35.33;;;14.00;99.90;;;14.08;100.00;100115.25;4918746;29;20047;-80
2023/10/09 08:17:11;;;;;;;88.38;33.55;;;14.10;99.90;;;14.26;100.00;100119.59;4932079;29;20047;-78
2023/10/09 08:19:56;;;;;;;84.95;35.70;;;14.10;99.90;;;14.34;100.00;100124.63;4919765;29;20036;-78
2023/10/09 08:24:57;;;;;;;87.40;33.72;;;14.20;99.90;;;14.34;100.00;100148.50;4919641;29;20036;-78
2023/10/09 08:33:00;;;;;;;77.57;31.77;;;14.30;99.90;;;14.42;100.00;100137.09;4923924;29;20492;-78
2023/10/09 08:35:47;;;;;;;79.07;32.63;;;14.30;99.90;;;14.51;100.00;100127.31;4925818;29;20047;-78
2023/10/09 08:38:14;;;;;;;75.07;31.13;;;14.40;99.90;;;14.56;100.00;100111.97;4923961;29;20039;-77
2023/10/09 08:40:42;;;;;;;76.80;32.90;;;14.50;99.90;;;14.67;100.00;100114.59;4924042;29;20494;-77
2023/10/09 08:43:19;;;;;;;78.63;32.88;;;14.60;99.90;;;14.71;100.00;100134.16;4918955;29;20040;-78
2023/10/09 08:46:03;;;;;;;72.72;31.83;;;14.60;99.90;;;14.73;100.00;100148.47;4928781;29;20028;-78
2023/10/09 08:48:30;;;;;;;72.18;32.20;;;14.60;99.90;;;14.75;100.00;100129.81;4922244;29;20044;-78
2023/10/09 08:50:56;;;;;;;72.10;31.67;;;14.70;99.90;;;14.79;100.00;100139.19;4919671;29;20040;-78
2023/10/09 08:53:27;;;;;;;72.53;32.88;;;14.70;99.90;;;15.03;100.00;100141.63;4923549;29;20035;-78
2023/10/09 08:55:53;;;;;;;68.55;31.58;;;14.80;99.90;;;14.98;100.00;100144.34;4925347;29;20035;-79
2023/10/09 08:58:20;;;;;;;66.03;30.35;;;14.90;99.90;;;15.07;100.00;100172.19;4918938;29;20040;-79
2023/10/09 09:00:47;;;;;;;63.47;29.73;;;15.00;99.90;;;15.06;100.00;100190.56;4940040;29;20055;-79
2023/10/09 09:03:21;;;;;;;61.33;29.57;;;15.00;99.90;;;15.12;100.00;100202.44;4916864;29;20518;-79
2023/10/09 09:05:56;;;;;;;58.20;27.52;;;15.00;99.90;;;15.04;100.00;100211.16;4926811;29;20048;-78
2023/10/09 09:08:28;;;;;;;51.78;27.67;;;15.00;99.90;;;15.01;100.00;100201.50;4921580;29;20055;-78
2023/10/09 09:11:22;;;;;;;53.70;26.02;;;15.10;99.90;;;15.22;100.00;100220.97;4921612;29;20040;-78
2023/10/09 09:14:05;;;;;;;50.83;26.30;;;15.10;99.90;;;15.14;100.00;100225.00;4918378;29;20040;-79
2023/10/09 09:16:36;;;;;;;49.95;26.40;;;15.10;99.90;;;15.32;100.00;100210.06;4917842;29;20395;-79
2023/10/09 09:21:38;;;;;;;43.33;21.95;;;15.20;99.90;;;15.23;100.00;100252.84;4923407;29;20092;-79
2023/10/09 09:24:16;;;;;;;44.38;22.48;;;15.20;99.90;;;15.20;100.00;100251.44;4922912;29;20054;-79
2023/10/09 09:26:46;;;;;;;44.70;21.42;;;15.20;99.90;;;15.31;100.00;100276.28;4922173;29;20040;-79
2023/10/09 09:29:17;;;;;;;42.67;20.85;;;15.20;99.90;;;15.33;100.00;100285.09;4927499;29;20385;-79
2023/10/09 09:31:55;;;;;;;37.85;19.38;;;15.20;99.90;;;15.33;100.00;100302.41;4915927;29;20044;-79
2023/10/09 09:34:25;;;;;;;36.53;20.30;;;15.30;99.90;;;15.32;100.00;100311.75;4924645;29;20043;-80
2023/10/09 09:36:57;;;;;;;34.70;19.63;;;15.20;99.90;;;15.26;100.00;100340.25;4920915;29;20036;-78
2023/10/09 09:39:29;;;;;;;36.55;19.30;;;15.30;99.90;;;15.26;100.00;100384.22;4930002;29;20023;-79
2023/10/09 09:42:03;;;;;;;32.65;17.98;;;15.30;99.90;;;15.23;100.00;100431.47;4927483;29;20044;-77
2023/10/09 09:44:33;;;;;;;29.85;15.82;;;15.30;99.90;;;15.11;100.00;100442.56;4921812;29;20106;-77
2023/10/09 09:47:06;;;;;;;32.78;17.50;;;15.30;99.90;;;15.00;100.00;100396.78;4927796;29;20032;-78
2023/10/09 09:49:33;;;;;;;31.83;18.75;;;15.20;99.90;;;14.84;100.00;100369.09;4924947;29;20039;-77
2023/10/09 09:52:03;;;;;;;34.08;18.95;;;15.00;99.90;;;14.95;100.00;100315.97;4926311;29;20031;-77
2023/10/09 09:54:32;;;;;;;38.92;20.00;;;15.00;99.90;;;14.89;100.00;100318.91;4928642;29;20095;-76
2023/10/09 09:57:08;;;;;;;39.15;21.45;;;15.00;99.90;;;14.87;100.00;100304.59;4920913;29;20528;-76
2023/10/09 09:59:52;;;;;;;39.80;20.38;;;15.00;99.90;;;15.00;100.00;100271.25;4924035;29;20586;-77
2023/10/09 10:02:33;;;;;;;40.83;21.33;;;14.90;99.90;;;14.93;100.00;100270.63;4925196;29;21015;-77
2023/10/09 10:05:06;;;;;;;47.60;23.13;;;14.90;99.90;;;14.99;100.00;100257.78;4924355;29;20051;-76
2023/10/09 10:07:42;;;;;;;43.28;22.02;;;14.90;99.90;;;14.90;100.00;100236.25;4927236;29;20106;-76
2023/10/09 10:10:47;;;;;;;56.50;24.40;;;14.90;99.90;;;14.97;100.00;100244.31;4921441;29;20067;-77
2023/10/09 10:13:23;;;;;;;54.20;24.45;;;14.90;99.90;;;14.97;100.00;100211.34;4922655;29;20046;-77
2023/10/09 10:15:58;;;;;;;54.35;24.45;;;14.90;99.90;;;15.04;100.00;100203.72;4924018;29;20040;-77
2023/10/09 10:18:24;;;;;;;58.60;26.40;;;14.90;99.90;;;15.06;100.00;100179.56;4923565;29;20134;-76
2023/10/09 10:21:14;;;;;;;52.47;25.45;;;15.00;99.90;;;15.10;100.00;100164.22;4931605;29;20049;-77
2023/10/09 10:23:40;;;;;;;62.60;26.63;;;15.00;99.90;;;15.10;100.00;100157.91;4925658;29;20433;-77
2023/10/09 10:26:27;;;;;;;63.40;28.80;;;15.00;99.90;;;15.17;100.00;100153.03;4922826;29;20029;-77
2023/10/09 10:29:24;;;;;;;61.45;28.05;;;15.00;99.90;;;15.17;100.00;100160.47;4923166;29;20111;-76
2023/10/09 10:31:56;;;;;;;64.35;29.02;;;15.10;99.90;;;15.16;100.00;100159.63;4924761;29;20489;-76
2023/10/09 10:34:24;;;;;;;60.80;28.83;;;15.00;99.90;;;15.02;100.00;100148.22;4924976;29;20052;-80
2023/10/09 10:37:00;;;;;;;57.10;28.95;;;15.00;99.90;;;15.06;100.00;100137.56;4920922;29;20119;-79
2023/10/09 10:39:42;;;;;;;56.55;29.90;;;15.00;99.90;;;15.10;100.00;100138.69;4933776;29;20103;-78
2023/10/09 10:42:14;;;;;;;63.10;31.98;;;15.00;99.90;;;15.19;100.00;100131.63;4940025;29;20040;-79
2023/10/09 10:44:42;;;;;;;59.97;29.30;;;15.10;99.90;;;15.16;100.00;100126.66;4923704;29;20092;-79
2023/10/09 10:47:22;;;;;;;59.83;29.60;;;15.10;99.90;;;15.06;100.00;100135.63;4925818;29;20424;-78
2023/10/09 10:49:51;;;;;;;51.70;28.83;;;15.00;99.90;;;15.12;100.00;100125.53;4926421;29;20059;-81
2023/10/09 10:52:41;;;;;;;54.97;29.92;;;15.10;99.90;;;15.13;100.00;100138.16;4921188;29;20044;-82
2023/10/09 10:58:09;;;;;;;61.97;30.47;;;15.00;99.90;;;15.10;100.00;100134.00;4916451;29;20046;-78
2023/10/09 11:03:35;;;;;;;47.13;26.67;;;15.10;99.90;;;15.03;100.00;100138.09;4895898;29;20079;-78
2023/10/09 11:06:17;;;;;;;47.33;24.90;;;15.10;99.90;;;15.17;100.00;100144.00;4917025;29;20457;-80
2023/10/09 11:08:56;;;;;;;42.13;23.67;;;15.10;99.90;;;15.12;100.00;100152.16;4924710;29;20052;-80
2023/10/09 11:11:23;;;;;;;45.20;24.35;;;15.10;99.90;;;15.16;100.00;100153.31;4920267;29;20041;-78
2023/10/09 11:13:58;;;;;;;46.65;23.27;;;15.10;99.90;;;15.08;100.00;100163.66;4916447;29;20097;-81
2023/10/09 11:19:12;;;;;;;40.47;23.65;;;15.20;99.90;;;15.34;100.00;100152.91;4918135;29;20103;-80
2023/10/09 11:21:42;;;;;;;38.75;23.15;;;15.30;99.90;;;15.29;100.00;100147.38;4916180;29;20118;-79
2023/10/09 11:24:24;;;;;;;42.38;23.75;;;15.30;99.90;;;15.34;100.00;100166.66;4936683;29;20047;-81
2023/10/09 11:26:55;;;;;;;35.45;22.67;;;15.30;99.90;;;15.41;100.00;100149.16;4927029;29;20326;-81
2023/10/09 11:32:14;;;;;;;36.83;21.67;;;15.50;99.90;;;15.53;100.00;100180.03;4922148;29;20445;-81
2023/10/09 11:34:45;;;;;;;37.55;21.88;;;15.50;99.90;;;15.50;100.00;100186.88;4913679;29;20046;-80
2023/10/09 11:40:00;;;;;;;31.23;19.80;;;15.40;99.90;;;15.34;100.00;100227.13;4928001;29;20036;-80
2023/10/09 11:42:35;;;;;;;36.50;21.73;;;15.40;99.90;;;15.36;100.00;100213.94;4923983;29;20040;-81
2023/10/09 11:45:19;;;;;;;31.40;20.70;;;15.40;99.90;;;15.39;100.00;100207.97;4924113;29;20406;-80
2023/10/09 11:47:59;;;;;;;32.47;21.38;;;15.40;99.90;;;15.37;100.00;100212.03;4927935;29;20044;-80
2023/10/09 11:50:51;;;;;;;35.65;21.20;;;15.40;99.90;;;15.40;100.00;100214.28;4927541;29;20118;-81
2023/10/09 11:55:52;;;;;;;38.33;23.77;;;15.30;99.90;;;15.35;100.00;100216.97;4924721;29;20219;-80
2023/10/09 11:58:22;;;;;;;39.38;24.05;;;15.30;99.90;;;15.28;100.00;100210.88;4923792;29;20071;-82
2023/10/09 12:00:59;;;;;;;43.72;25.13;;;15.30;99.90;;;15.33;100.00;100192.47;4925875;29;20046;-79
2023/10/09 12:03:29;;;;;;;38.08;24.55;;;15.30;99.90;;;15.24;100.00;100172.06;4925998;29;20066;-79
2023/10/09 12:06:07;;;;;;;43.55;25.38;;;15.30;99.90;;;15.35;100.00;100178.50;4924639;29;20089;-80
2023/10/09 12:08:34;;;;;;;42.17;25.10;;;15.30;99.90;;;15.26;100.00;100169.91;4920163;29;20126;-84
2023/10/09 12:11:03;;;;;;;42.13;25.73;;;15.40;99.90;;;15.35;100.00;100173.81;4916848;29;20028;-82
2023/10/09 12:13:28;;;;;;;42.50;25.75;;;15.40;99.90;;;15.34;100.00;100161.16;4921794;29;20071;-81
2023/10/09 12:15:54;;;;;;;43.25;25.70;;;15.40;99.90;;;15.36;100.00;100169.97;4921845;29;20413;-81
2023/10/09 12:18:23;;;;;;;41.22;25.70;;;15.40;99.90;;;15.28;100.00;100164.16;4931411;29;20044;-80
2023/10/09 12:20:55;;;;;;;42.65;25.95;;;15.40;99.90;;;15.42;100.00;100150.81;4927032;29;20401;-81
2023/10/09 12:23:23;;;;;;;41.15;26.27;;;15.50;99.90;;;15.46;100.00;100146.44;4927241;29;20040;-80
2023/10/09 12:25:50;;;;;;;42.45;25.27;;;15.50;99.90;;;15.51;100.00;100149.22;4924672;29;20033;-82
2023/10/09 12:28:20;;;;;;;37.28;25.33;;;15.50;99.90;;;15.46;100.00;100149.19;4925706;29;20044;-80
2023/10/09 12:30:50;;;;;;;41.70;24.98;;;15.50;99.90;;;15.50;100.00;100148.38;4924152;29;20091;-81
2023/10/09 12:33:18;;;;;;;38.55;24.27;;;15.50;99.90;;;15.43;100.00;100149.72;4924593;29;20100;-81
2023/10/09 12:35:47;;;;;;;;;;;15.50;99.90;;;15.34;100.00;100128.19;4910016;29;20126;-79
2023/10/09 12:38:18;;;;;;;40.28;24.73;;;15.50;99.90;;;15.45;100.00;100126.34;4924730;29;19919;-82
2023/10/09 12:40:50;;;;;;;40.50;25.45;;;15.50;99.90;;;15.38;100.00;100112.84;4925537;29;20036;-80
2023/10/09 12:43:19;;;;;;;41.97;26.17;;;15.50;99.90;;;15.25;100.00;100124.28;4927042;29;20036;-79
2023/10/09 12:45:48;;;;;;;39.58;25.65;;;15.40;99.90;;;15.40;100.00;100098.84;4924816;29;20188;-80
2023/10/09 12:48:14;;;;;;;41.10;27.20;;;15.40;99.90;;;15.43;100.00;100086.50;4927551;29;20028;-80
2023/10/09 12:50:46;;;;;;;43.03;27.27;;;15.50;99.90;;;15.49;100.00;100096.44;4930328;29;20074;-80
2023/10/09 12:53:17;;;;;;;47.40;28.23;;;15.50;99.90;;;15.59;100.00;100074.50;4927162;29;20032;-80
2023/10/09 12:55:43;;;;;;;50.80;29.10;;;15.60;99.90;;;15.61;100.00;100066.00;4930532;29;20400;-81
2023/10/09 12:58:15;;;;;;;50.78;29.17;;;15.60;99.90;;;15.72;100.00;100072.41;4931528;29;20040;-79
2023/10/09 13:00:48;;;;;;;42.67;28.48;;;15.70;99.90;;;15.64;100.00;100060.78;4925445;29;20079;-79
2023/10/09 13:03:18;;;;;;;49.25;30.58;;;15.70;99.90;;;15.88;100.00;100056.81;4926572;29;20071;-80
2023/10/09 13:05:54;;;;;;;50.50;31.10;;;15.80;99.90;;;16.18;100.00;100047.94;4927492;29;20055;-80
2023/10/09 13:08:31;;;;;;;46.15;30.05;;;16.00;99.90;;;16.39;100.00;100068.09;4917820;29;20059;-81
2023/10/09 13:11:16;;;;;;;41.30;28.45;;;16.30;99.90;;;16.47;100.00;100104.44;4929869;29;20047;-80
2023/10/09 13:13:52;;;;;;;40.72;29.17;;;16.50;99.90;;;16.52;100.00;100160.34;4927218;29;20058;-86
2023/10/09 13:16:24;;;;;;;32.83;23.40;;;16.60;99.90;;;16.45;100.00;100219.50;4917759;29;20038;-84
2023/10/09 13:18:56;;;;;;;32.28;22.33;;;16.60;99.90;;;16.40;100.00;100247.81;4920608;29;20040;-85
2023/10/09 13:21:33;;;;;;;28.90;20.50;;;16.50;99.90;;;16.39;100.00;100263.53;4924622;29;20050;-84